sensor_id;sensor_type;location;lat;lon;timestamp;P1;durP1;ratioP1;P2;durP2;ratioP2
48791;SDS011;34587;48.816;9.420;2023-11-19T00:02:14;3.05;;;1.58;;
48791;SDS011;34587;48.816;9.420;2023-11-19T00:04:40;2.17;;;1.95;;
48791;SDS011;34587;48.816;9.420;2023-11-19T00:07:06;2.97;;;1.70;;
48791;SDS011;34587;48.816;9.420;2023-11-19T00:09:33;2.13;;;1.90;;
48791;SDS011;34587;48.816;9.420;2023-11-19T00:11:58;2.67;;;1.63;;
48791;SDS011;34587;48.816;9.420;2023-11-19T00:14:25;1.50;;;1.40;;
48791;SDS011;34587;48.816;9.420;2023-11-19T00:16:54;2.50;;;1.30;;
48791;SDS011;34587;48.816;9.420;2023-11-19T00:19:19;2.60;;;1.73;;
48791;SDS011;34587;48.816;9.420;2023-11-19T00:21:44;2.47;;;1.88;;
48791;SDS011;34587;48.816;9.420;2023-11-19T00:24:10;3.95;;;1.75;;
48791;SDS011;34587;48.816;9.420;2023-11-19T00:26:37;3.38;;;1.45;;
48791;SDS011;34587;48.816;9.420;2023-11-19T00:29:03;2.83;;;1.80;;
48791;SDS011;34587;48.816;9.420;2023-11-19T00:31:28;1.52;;;1.42;;
48791;SDS011;34587;48.816;9.420;2023-11-19T00:33:54;3.15;;;1.95;;
48791;SDS011;34587;48.816;9.420;2023-11-19T00:36:19;2.53;;;1.77;;
48791;SDS011;34587;48.816;9.420;2023-11-19T00:38:44;5.18;;;1.67;;
48791;SDS011;34587;48.816;9.420;2023-11-19T00:41:10;2.38;;;2.15;;
48791;SDS011;34587;48.816;9.420;2023-11-19T00:43:35;2.53;;;1.92;;
48791;SDS011;34587;48.816;9.420;2023-11-19T00:46:01;2.83;;;2.08;;
48791;SDS011;34587;48.816;9.420;2023-11-19T00:48:27;2.53;;;1.50;;
48791;SDS011;34587;48.816;9.420;2023-11-19T00:50:53;4.15;;;1.40;;
48791;SDS011;34587;48.816;9.420;2023-11-19T00:53:18;1.15;;;1.10;;
48791;SDS011;34587;48.816;9.420;2023-11-19T00:55:43;1.50;;;1.40;;
48791;SDS011;34587;48.816;9.420;2023-11-19T00:58:09;1.42;;;1.33;;
48791;SDS011;34587;48.816;9.420;2023-11-19T05:46:40;0.43;;;0.38;;
48791;SDS011;34587;48.816;9.420;2023-11-19T05:49:08;0.30;;;0.30;;
48791;SDS011;34587;48.816;9.420;2023-11-19T05:51:37;0.30;;;0.30;;
48791;SDS011;34587;48.816;9.420;2023-11-19T05:54:03;0.30;;;0.30;;
48791;SDS011;34587;48.816;9.420;2023-11-19T05:56:29;0.30;;;0.30;;
48791;SDS011;34587;48.816;9.420;2023-11-19T05:58:57;0.43;;;0.30;;
48791;SDS011;34587;48.816;9.420;2023-11-19T06:01:23;0.40;;;0.40;;
48791;SDS011;34587;48.816;9.420;2023-11-19T06:03:48;0.30;;;0.30;;
48791;SDS011;34587;48.816;9.420;2023-11-19T06:06:15;0.30;;;0.30;;
48791;SDS011;34587;48.816;9.420;2023-11-19T06:08:40;0.25;;;0.25;;
48791;SDS011;34587;48.816;9.420;2023-11-19T06:11:05;0.40;;;0.40;;
48791;SDS011;34587;48.816;9.420;2023-11-19T06:13:31;0.47;;;0.40;;
48791;SDS011;34587;48.816;9.420;2023-11-19T06:15:56;1.00;;;0.40;;
48791;SDS011;34587;48.816;9.420;2023-11-19T06:18:21;0.25;;;0.25;;
48791;SDS011;34587;48.816;9.420;2023-11-19T06:20:48;0.40;;;0.40;;
48791;SDS011;34587;48.816;9.420;2023-11-19T06:23:14;0.40;;;0.40;;
48791;SDS011;34587;48.816;9.420;2023-11-19T06:25:40;0.50;;;0.40;;
48791;SDS011;34587;48.816;9.420;2023-11-19T06:28:05;0.30;;;0.30;;
48791;SDS011;34587;48.816;9.420;2023-11-19T06:30:30;0.70;;;0.70;;
48791;SDS011;34587;48.816;9.420;2023-11-19T06:32:57;0.40;;;0.40;;
48791;SDS011;34587;48.816;9.420;2023-11-19T06:35:23;0.35;;;0.35;;
48791;SDS011;34587;48.816;9.420;2023-11-19T06:37:48;0.30;;;0.30;;
48791;SDS011;34587;48.816;9.420;2023-11-19T06:40:13;0.70;;;0.50;;
48791;SDS011;34587;48.816;9.420;2023-11-19T06:42:40;1.08;;;0.30;;
48791;SDS011;34587;48.816;9.420;2023-11-19T06:45:06;0.20;;;0.20;;
48791;SDS011;34587;48.816;9.420;2023-11-19T06:47:32;0.30;;;0.30;;
48791;SDS011;34587;48.816;9.420;2023-11-19T06:49:58;1.73;;;1.00;;
48791;SDS011;34587;48.816;9.420;2023-11-19T06:52:23;6.70;;;2.80;;
48791;SDS011;34587;48.816;9.420;2023-11-19T06:54:49;1.65;;;0.65;;
48791;SDS011;34587;48.816;9.420;2023-11-19T06:57:14;0.30;;;0.30;;
48791;SDS011;34587;48.816;9.420;2023-11-19T06:59:39;0.88;;;0.68;;
48791;SDS011;34587;48.816;9.420;2023-11-19T07:02:05;1.73;;;0.98;;
48791;SDS011;34587;48.816;9.420;2023-11-19T07:04:31;0.40;;;0.40;;
48791;SDS011;34587;48.816;9.420;2023-11-19T07:06:58;0.30;;;0.30;;
48791;SDS011;34587;48.816;9.420;2023-11-19T07:09:23;0.85;;;0.55;;
48791;SDS011;34587;48.816;9.420;2023-11-19T07:11:48;4.13;;;2.65;;
48791;SDS011;34587;48.816;9.420;2023-11-19T07:14:16;1.15;;;0.75;;
48791;SDS011;34587;48.816;9.420;2023-11-19T07:16:42;0.30;;;0.30;;
48791;SDS011;34587;48.816;9.420;2023-11-19T07:19:08;0.90;;;0.35;;
48791;SDS011;34587;48.816;9.420;2023-11-19T07:21:33;0.32;;;0.32;;
48791;SDS011;34587;48.816;9.420;2023-11-19T07:23:59;3.40;;;1.73;;
48791;SDS011;34587;48.816;9.420;2023-11-19T07:26:24;1.73;;;1.15;;
48791;SDS011;34587;48.816;9.420;2023-11-19T07:28:50;0.40;;;0.40;;
48791;SDS011;34587;48.816;9.420;2023-11-19T07:31:16;0.63;;;0.60;;
48791;SDS011;34587;48.816;9.420;2023-11-19T07:33:44;0.85;;;0.40;;
48791;SDS011;34587;48.816;9.420;2023-11-19T07:36:09;2.13;;;1.60;;
48791;SDS011;34587;48.816;9.420;2023-11-19T07:38:35;0.90;;;0.65;;
48791;SDS011;34587;48.816;9.420;2023-11-19T07:41:01;0.50;;;0.50;;
48791;SDS011;34587;48.816;9.420;2023-11-19T07:43:26;0.57;;;0.57;;
48791;SDS011;34587;48.816;9.420;2023-11-19T07:45:52;0.60;;;0.60;;
48791;SDS011;34587;48.816;9.420;2023-11-19T07:48:17;0.50;;;0.50;;
48791;SDS011;34587;48.816;9.420;2023-11-19T07:50:47;0.30;;;0.30;;
48791;SDS011;34587;48.816;9.420;2023-11-19T07:53:15;1.10;;;0.57;;
48791;SDS011;34587;48.816;9.420;2023-11-19T07:55:40;0.52;;;0.43;;
48791;SDS011;34587;48.816;9.420;2023-11-19T07:58:06;0.30;;;0.30;;
48791;SDS011;34587;48.816;9.420;2023-11-19T08:00:31;0.30;;;0.28;;
48791;SDS011;34587;48.816;9.420;2023-11-19T08:02:56;0.40;;;0.40;;
48791;SDS011;34587;48.816;9.420;2023-11-19T08:05:22;0.95;;;0.32;;
48791;SDS011;34587;48.816;9.420;2023-11-19T08:07:49;0.50;;;0.50;;
48791;SDS011;34587;48.816;9.420;2023-11-19T08:10:14;0.40;;;0.40;;
48791;SDS011;34587;48.816;9.420;2023-11-19T08:12:40;1.75;;;0.50;;
48791;SDS011;34587;48.816;9.420;2023-11-19T08:15:05;0.35;;;0.35;;
48791;SDS011;34587;48.816;9.420;2023-11-19T08:17:32;0.30;;;0.30;;
48791;SDS011;34587;48.816;9.420;2023-11-19T08:19:57;0.30;;;0.30;;
48791;SDS011;34587;48.816;9.420;2023-11-19T08:22:22;0.30;;;0.30;;
48791;SDS011;34587;48.816;9.420;2023-11-19T08:24:48;0.30;;;0.30;;
48791;SDS011;34587;48.816;9.420;2023-11-19T08:27:13;0.30;;;0.30;;
48791;SDS011;34587;48.816;9.420;2023-11-19T08:29:39;0.43;;;0.40;;
48791;SDS011;34587;48.816;9.420;2023-11-19T08:32:04;0.30;;;0.30;;
48791;SDS011;34587;48.816;9.420;2023-11-19T08:34:31;0.30;;;0.30;;
48791;SDS011;34587;48.816;9.420;2023-11-19T08:36:56;0.30;;;0.30;;
48791;SDS011;34587;48.816;9.420;2023-11-19T08:39:22;0.20;;;0.20;;
48791;SDS011;34587;48.816;9.420;2023-11-19T08:41:47;0.20;;;0.20;;
48791;SDS011;34587;48.816;9.420;2023-11-19T08:44:13;0.65;;;0.60;;
48791;SDS011;34587;48.816;9.420;2023-11-19T08:46:39;0.30;;;0.30;;
48791;SDS011;34587;48.816;9.420;2023-11-19T08:49:05;2.22;;;0.40;;
48791;SDS011;34587;48.816;9.420;2023-11-19T08:51:30;0.50;;;0.30;;
48791;SDS011;34587;48.816;9.420;2023-11-19T08:53:56;1.30;;;0.30;;
48791;SDS011;34587;48.816;9.420;2023-11-19T08:56:22;0.22;;;0.22;;
48791;SDS011;34587;48.816;9.420;2023-11-19T08:58:47;1.88;;;0.40;;
48791;SDS011;34587;48.816;9.420;2023-11-19T09:01:13;0.40;;;0.30;;
48791;SDS011;34587;48.816;9.420;2023-11-19T09:03:38;0.55;;;0.55;;
48791;SDS011;34587;48.816;9.420;2023-11-19T09:06:03;0.40;;;0.40;;
48791;SDS011;34587;48.816;9.420;2023-11-19T09:08:29;1.27;;;0.43;;
48791;SDS011;34587;48.816;9.420;2023-11-19T09:10:54;0.32;;;0.32;;
48791;SDS011;34587;48.816;9.420;2023-11-19T09:13:19;0.38;;;0.38;;
48791;SDS011;34587;48.816;9.420;2023-11-19T09:15:45;2.38;;;0.57;;
48791;SDS011;34587;48.816;9.420;2023-11-19T09:18:10;0.47;;;0.40;;
48791;SDS011;34587;48.816;9.420;2023-11-19T09:20:36;0.40;;;0.40;;
48791;SDS011;34587;48.816;9.420;2023-11-19T09:23:03;2.92;;;0.30;;
48791;SDS011;34587;48.816;9.420;2023-11-19T09:25:30;1.83;;;1.35;;
48791;SDS011;34587;48.816;9.420;2023-11-19T09:27:55;0.30;;;0.30;;
48791;SDS011;34587;48.816;9.420;2023-11-19T09:30:21;0.38;;;0.38;;
48791;SDS011;34587;48.816;9.420;2023-11-19T09:32:46;0.30;;;0.30;;
48791;SDS011;34587;48.816;9.420;2023-11-19T09:35:11;0.75;;;0.32;;
48791;SDS011;34587;48.816;9.420;2023-11-19T09:37:39;2.90;;;0.52;;
48791;SDS011;34587;48.816;9.420;2023-11-19T09:40:05;0.70;;;0.40;;
48791;SDS011;34587;48.816;9.420;2023-11-19T09:42:35;0.38;;;0.30;;
48791;SDS011;34587;48.816;9.420;2023-11-19T09:45:11;0.63;;;0.40;;
48791;SDS011;34587;48.816;9.420;2023-11-19T09:47:39;2.45;;;0.30;;
48791;SDS011;34587;48.816;9.420;2023-11-19T09:50:05;0.73;;;0.70;;
48791;SDS011;34587;48.816;9.420;2023-11-19T09:52:30;2.25;;;1.80;;
48791;SDS011;34587;48.816;9.420;2023-11-19T09:54:56;0.50;;;0.50;;
48791;SDS011;34587;48.816;9.420;2023-11-19T09:57:21;0.45;;;0.43;;
48791;SDS011;34587;48.816;9.420;2023-11-19T09:59:47;8.82;;;5.22;;
48791;SDS011;34587;48.816;9.420;2023-11-19T10:02:12;3.63;;;0.60;;
48791;SDS011;34587;48.816;9.420;2023-11-19T10:04:39;0.50;;;0.50;;
48791;SDS011;34587;48.816;9.420;2023-11-19T10:07:07;0.65;;;0.40;;
48791;SDS011;34587;48.816;9.420;2023-11-19T10:09:32;0.40;;;0.40;;
48791;SDS011;34587;48.816;9.420;2023-11-19T10:11:57;0.40;;;0.40;;
48791;SDS011;34587;48.816;9.420;2023-11-19T10:14:23;1.85;;;0.73;;
48791;SDS011;34587;48.816;9.420;2023-11-19T10:16:49;0.38;;;0.38;;
48791;SDS011;34587;48.816;9.420;2023-11-19T10:19:20;2.85;;;1.92;;
48791;SDS011;34587;48.816;9.420;2023-11-19T10:21:45;6.25;;;2.53;;
48791;SDS011;34587;48.816;9.420;2023-11-19T10:24:11;0.50;;;0.50;;
48791;SDS011;34587;48.816;9.420;2023-11-19T10:26:36;0.63;;;0.50;;
48791;SDS011;34587;48.816;9.420;2023-11-19T10:29:02;1.13;;;0.60;;
48791;SDS011;34587;48.816;9.420;2023-11-19T10:31:27;1.05;;;0.55;;
48791;SDS011;34587;48.816;9.420;2023-11-19T10:33:52;0.90;;;0.60;;
48791;SDS011;34587;48.816;9.420;2023-11-19T10:36:18;0.65;;;0.40;;
48791;SDS011;34587;48.816;9.420;2023-11-19T10:38:53;3.25;;;1.63;;
48791;SDS011;34587;48.816;9.420;2023-11-19T10:41:29;2.63;;;1.25;;
48791;SDS011;34587;48.816;9.420;2023-11-19T10:43:56;0.40;;;0.40;;
48791;SDS011;34587;48.816;9.420;2023-11-19T10:46:22;24.08;;;11.52;;
48791;SDS011;34587;48.816;9.420;2023-11-19T10:48:48;1.63;;;1.50;;
48791;SDS011;34587;48.816;9.420;2023-11-19T10:51:13;0.50;;;0.40;;
48791;SDS011;34587;48.816;9.420;2023-11-19T10:53:48;0.40;;;0.40;;
48791;SDS011;34587;48.816;9.420;2023-11-19T10:56:16;0.65;;;0.65;;
48791;SDS011;34587;48.816;9.420;2023-11-19T10:58:44;0.52;;;0.52;;
48791;SDS011;34587;48.816;9.420;2023-11-19T11:01:18;2.10;;;0.60;;
48791;SDS011;34587;48.816;9.420;2023-11-19T11:03:48;3.92;;;2.67;;
48791;SDS011;34587;48.816;9.420;2023-11-19T11:06:17;3.30;;;2.70;;
48791;SDS011;34587;48.816;9.420;2023-11-19T11:08:43;3.03;;;1.58;;
48791;SDS011;34587;48.816;9.420;2023-11-19T11:11:11;1.50;;;1.02;;
48791;SDS011;34587;48.816;9.420;2023-11-19T11:16:07;0.98;;;0.95;;
48791;SDS011;34587;48.816;9.420;2023-11-19T11:18:33;1.92;;;1.25;;
48791;SDS011;34587;48.816;9.420;2023-11-19T11:21:11;4.72;;;1.55;;
48791;SDS011;34587;48.816;9.420;2023-11-19T11:38:03;0.60;;;0.57;;
48791;SDS011;34587;48.816;9.420;2023-11-19T11:40:31;2.00;;;0.90;;
48791;SDS011;34587;48.816;9.420;2023-11-19T11:42:57;0.98;;;0.90;;
48791;SDS011;34587;48.816;9.420;2023-11-19T11:45:35;2.08;;;1.20;;
48791;SDS011;34587;48.816;9.420;2023-11-19T11:48:06;7.10;;;1.23;;
48791;SDS011;34587;48.816;9.420;2023-11-19T11:50:35;0.82;;;0.60;;
48791;SDS011;34587;48.816;9.420;2023-11-19T11:53:18;2.97;;;0.80;;
48791;SDS011;34587;48.816;9.420;2023-11-19T11:58:21;3.78;;;0.77;;
48791;SDS011;34587;48.816;9.420;2023-11-19T12:00:51;0.63;;;0.40;;
48791;SDS011;34587;48.816;9.420;2023-11-19T12:03:18;3.00;;;0.63;;
48791;SDS011;34587;48.816;9.420;2023-11-19T12:05:47;2.38;;;0.75;;
48791;SDS011;34587;48.816;9.420;2023-11-19T12:08:13;0.28;;;0.28;;
48791;SDS011;34587;48.816;9.420;2023-11-19T12:10:47;0.82;;;0.65;;
48791;SDS011;34587;48.816;9.420;2023-11-19T12:13:14;1.95;;;0.77;;
48791;SDS011;34587;48.816;9.420;2023-11-19T12:18:20;0.50;;;0.50;;
48791;SDS011;34587;48.816;9.420;2023-11-19T12:20:48;0.57;;;0.43;;
48791;SDS011;34587;48.816;9.420;2023-11-19T12:23:14;1.48;;;0.55;;
48791;SDS011;34587;48.816;9.420;2023-11-19T12:25:39;4.82;;;0.60;;
48791;SDS011;34587;48.816;9.420;2023-11-19T12:28:04;1.52;;;0.68;;
48791;SDS011;34587;48.816;9.420;2023-11-19T12:30:31;2.83;;;0.68;;
48791;SDS011;34587;48.816;9.420;2023-11-19T12:32:57;5.88;;;0.65;;
48791;SDS011;34587;48.816;9.420;2023-11-19T12:35:22;1.48;;;0.60;;
48791;SDS011;34587;48.816;9.420;2023-11-19T12:37:49;1.02;;;0.50;;
48791;SDS011;34587;48.816;9.420;2023-11-19T12:40:22;1.75;;;0.82;;
48791;SDS011;34587;48.816;9.420;2023-11-19T12:42:49;0.68;;;0.35;;
48791;SDS011;34587;48.816;9.420;2023-11-19T12:45:15;2.25;;;0.65;;
48791;SDS011;34587;48.816;9.420;2023-11-19T12:47:42;0.70;;;0.50;;
48791;SDS011;34587;48.816;9.420;2023-11-19T12:50:09;3.58;;;1.75;;
48791;SDS011;34587;48.816;9.420;2023-11-19T12:52:35;1.15;;;0.40;;
48791;SDS011;34587;48.816;9.420;2023-11-19T12:55:01;2.67;;;0.50;;
48791;SDS011;34587;48.816;9.420;2023-11-19T12:57:40;6.85;;;1.65;;
48791;SDS011;34587;48.816;9.420;2023-11-19T13:00:06;2.72;;;0.70;;
48791;SDS011;34587;48.816;9.420;2023-11-19T13:02:48;1.35;;;0.47;;
48791;SDS011;34587;48.816;9.420;2023-11-19T13:05:25;0.47;;;0.40;;
48791;SDS011;34587;48.816;9.420;2023-11-19T13:10:25;1.08;;;0.47;;
48791;SDS011;34587;48.816;9.420;2023-11-19T13:13:05;2.13;;;0.55;;
48791;SDS011;34587;48.816;9.420;2023-11-19T13:15:35;1.33;;;0.55;;
48791;SDS011;34587;48.816;9.420;2023-11-19T13:18:00;1.95;;;0.50;;
48791;SDS011;34587;48.816;9.420;2023-11-19T13:20:27;2.45;;;0.30;;
48791;SDS011;34587;48.816;9.420;2023-11-19T13:23:04;2.70;;;0.70;;
48791;SDS011;34587;48.816;9.420;2023-11-19T13:25:31;19.20;;;7.47;;
48791;SDS011;34587;48.816;9.420;2023-11-19T13:27:57;6.03;;;2.60;;
48791;SDS011;34587;48.816;9.420;2023-11-19T13:30:23;0.90;;;0.60;;
48791;SDS011;34587;48.816;9.420;2023-11-19T13:32:50;0.68;;;0.47;;
48791;SDS011;34587;48.816;9.420;2023-11-19T13:35:16;5.38;;;0.80;;
48791;SDS011;34587;48.816;9.420;2023-11-19T13:37:42;1.67;;;0.80;;
48791;SDS011;34587;48.816;9.420;2023-11-19T13:40:09;2.10;;;0.50;;
48791;SDS011;34587;48.816;9.420;2023-11-19T13:42:38;0.77;;;0.50;;
48791;SDS011;34587;48.816;9.420;2023-11-19T13:45:06;1.65;;;0.47;;
48791;SDS011;34587;48.816;9.420;2023-11-19T13:47:35;2.78;;;0.57;;
48791;SDS011;34587;48.816;9.420;2023-11-19T13:50:01;0.95;;;0.63;;
48791;SDS011;34587;48.816;9.420;2023-11-19T13:52:26;3.78;;;0.52;;
48791;SDS011;34587;48.816;9.420;2023-11-19T13:54:52;3.85;;;1.42;;
48791;SDS011;34587;48.816;9.420;2023-11-19T13:57:17;0.50;;;0.50;;
48791;SDS011;34587;48.816;9.420;2023-11-19T13:59:43;0.63;;;0.40;;
48791;SDS011;34587;48.816;9.420;2023-11-19T14:02:09;0.65;;;0.40;;
48791;SDS011;34587;48.816;9.420;2023-11-19T14:04:34;0.75;;;0.43;;
48791;SDS011;34587;48.816;9.420;2023-11-19T14:06:59;0.73;;;0.55;;
48791;SDS011;34587;48.816;9.420;2023-11-19T14:09:25;2.65;;;0.52;;
48791;SDS011;34587;48.816;9.420;2023-11-19T14:11:50;1.38;;;0.82;;
48791;SDS011;34587;48.816;9.420;2023-11-19T14:14:16;2.03;;;0.50;;
48791;SDS011;34587;48.816;9.420;2023-11-19T14:16:41;1.85;;;0.55;;
48791;SDS011;34587;48.816;9.420;2023-11-19T14:19:07;3.28;;;0.40;;
48791;SDS011;34587;48.816;9.420;2023-11-19T14:21:33;0.30;;;0.30;;
48791;SDS011;34587;48.816;9.420;2023-11-19T14:23:58;2.40;;;0.40;;
48791;SDS011;34587;48.816;9.420;2023-11-19T14:26:24;1.10;;;0.60;;
48791;SDS011;34587;48.816;9.420;2023-11-19T14:28:49;9.63;;;4.15;;
48791;SDS011;34587;48.816;9.420;2023-11-19T14:31:14;1.00;;;0.68;;
48791;SDS011;34587;48.816;9.420;2023-11-19T14:33:39;1.60;;;0.90;;
48791;SDS011;34587;48.816;9.420;2023-11-19T14:36:05;0.75;;;0.68;;
48791;SDS011;34587;48.816;9.420;2023-11-19T14:38:32;0.63;;;0.40;;
48791;SDS011;34587;48.816;9.420;2023-11-19T14:40:57;1.30;;;0.47;;
48791;SDS011;34587;48.816;9.420;2023-11-19T14:43:24;2.55;;;0.50;;
48791;SDS011;34587;48.816;9.420;2023-11-19T14:45:49;0.60;;;0.60;;
48791;SDS011;34587;48.816;9.420;2023-11-19T14:48:15;0.38;;;0.30;;
48791;SDS011;34587;48.816;9.420;2023-11-19T14:50:40;0.95;;;0.47;;
48791;SDS011;34587;48.816;9.420;2023-11-19T14:53:05;0.65;;;0.50;;
48791;SDS011;34587;48.816;9.420;2023-11-19T14:55:31;2.63;;;0.50;;
48791;SDS011;34587;48.816;9.420;2023-11-19T14:57:57;1.33;;;0.70;;
48791;SDS011;34587;48.816;9.420;2023-11-19T15:00:22;0.65;;;0.60;;
48791;SDS011;34587;48.816;9.420;2023-11-19T15:02:47;0.82;;;0.40;;
48791;SDS011;34587;48.816;9.420;2023-11-19T15:05:12;1.40;;;0.45;;
48791;SDS011;34587;48.816;9.420;2023-11-19T15:07:38;0.70;;;0.50;;
48791;SDS011;34587;48.816;9.420;2023-11-19T15:10:05;0.35;;;0.35;;
48791;SDS011;34587;48.816;9.420;2023-11-19T15:12:36;0.98;;;0.57;;
48791;SDS011;34587;48.816;9.420;2023-11-19T15:15:05;3.72;;;0.57;;
48791;SDS011;34587;48.816;9.420;2023-11-19T15:17:39;0.85;;;0.55;;
48791;SDS011;34587;48.816;9.420;2023-11-19T15:20:05;0.93;;;0.50;;
48791;SDS011;34587;48.816;9.420;2023-11-19T15:22:31;0.60;;;0.40;;
48791;SDS011;34587;48.816;9.420;2023-11-19T15:24:56;3.75;;;0.43;;
48791;SDS011;34587;48.816;9.420;2023-11-19T15:27:22;3.20;;;0.50;;
48791;SDS011;34587;48.816;9.420;2023-11-19T15:29:47;5.07;;;3.15;;
48791;SDS011;34587;48.816;9.420;2023-11-19T15:32:13;0.65;;;0.65;;
48791;SDS011;34587;48.816;9.420;2023-11-19T15:34:39;1.15;;;0.75;;
48791;SDS011;34587;48.816;9.420;2023-11-19T15:37:06;7.63;;;0.80;;
48791;SDS011;34587;48.816;9.420;2023-11-19T15:39:31;9.50;;;5.22;;
48791;SDS011;34587;48.816;9.420;2023-11-19T15:41:57;0.70;;;0.70;;
48791;SDS011;34587;48.816;9.420;2023-11-19T15:44:24;6.50;;;0.98;;
48791;SDS011;34587;48.816;9.420;2023-11-19T15:46:49;1.08;;;0.95;;
48791;SDS011;34587;48.816;9.420;2023-11-19T15:49:15;1.08;;;0.57;;
48791;SDS011;34587;48.816;9.420;2023-11-19T15:51:41;2.28;;;0.60;;
48791;SDS011;34587;48.816;9.420;2023-11-19T15:54:07;0.70;;;0.65;;
48791;SDS011;34587;48.816;9.420;2023-11-19T15:56:32;3.20;;;0.73;;
48791;SDS011;34587;48.816;9.420;2023-11-19T15:58:58;0.73;;;0.60;;
48791;SDS011;34587;48.816;9.420;2023-11-19T16:01:23;1.83;;;0.90;;
48791;SDS011;34587;48.816;9.420;2023-11-19T16:03:48;0.90;;;0.88;;
48791;SDS011;34587;48.816;9.420;2023-11-19T16:06:13;2.90;;;1.13;;
48791;SDS011;34587;48.816;9.420;2023-11-19T16:08:39;2.10;;;1.25;;
48791;SDS011;34587;48.816;9.420;2023-11-19T16:11:04;1.05;;;0.57;;
48791;SDS011;34587;48.816;9.420;2023-11-19T16:13:30;2.88;;;0.88;;
48791;SDS011;34587;48.816;9.420;2023-11-19T16:15:56;2.97;;;1.77;;
48791;SDS011;34587;48.816;9.420;2023-11-19T16:18:21;25.77;;;10.60;;
48791;SDS011;34587;48.816;9.420;2023-11-19T16:20:46;28.40;;;14.38;;
48791;SDS011;34587;48.816;9.420;2023-11-19T16:23:12;23.02;;;12.88;;
48791;SDS011;34587;48.816;9.420;2023-11-19T16:25:37;8.63;;;3.97;;
48791;SDS011;34587;48.816;9.420;2023-11-19T16:28:04;2.63;;;2.17;;
48791;SDS011;34587;48.816;9.420;2023-11-19T16:30:32;1.88;;;1.33;;
48791;SDS011;34587;48.816;9.420;2023-11-19T16:32:58;3.63;;;1.88;;
48791;SDS011;34587;48.816;9.420;2023-11-19T16:35:26;4.93;;;1.20;;
48791;SDS011;34587;48.816;9.420;2023-11-19T16:37:52;2.35;;;1.38;;
48791;SDS011;34587;48.816;9.420;2023-11-19T16:40:17;1.05;;;0.77;;
48791;SDS011;34587;48.816;9.420;2023-11-19T16:42:43;3.55;;;0.80;;
48791;SDS011;34587;48.816;9.420;2023-11-19T16:45:11;1.27;;;0.80;;
48791;SDS011;34587;48.816;9.420;2023-11-19T16:47:37;3.05;;;1.30;;
48791;SDS011;34587;48.816;9.420;2023-11-19T16:50:02;2.53;;;1.52;;
48791;SDS011;34587;48.816;9.420;2023-11-19T16:52:28;2.00;;;0.98;;
48791;SDS011;34587;48.816;9.420;2023-11-19T16:54:54;7.65;;;1.02;;
48791;SDS011;34587;48.816;9.420;2023-11-19T16:57:20;0.77;;;0.77;;
48791;SDS011;34587;48.816;9.420;2023-11-19T16:59:47;1.98;;;1.02;;
48791;SDS011;34587;48.816;9.420;2023-11-19T17:02:13;4.45;;;1.80;;
48791;SDS011;34587;48.816;9.420;2023-11-19T17:04:38;6.20;;;3.45;;
48791;SDS011;34587;48.816;9.420;2023-11-19T17:07:05;12.52;;;5.80;;
48791;SDS011;34587;48.816;9.420;2023-11-19T17:09:31;7.68;;;3.70;;
48791;SDS011;34587;48.816;9.420;2023-11-19T17:11:56;13.98;;;5.68;;
48791;SDS011;34587;48.816;9.420;2023-11-19T17:14:22;30.77;;;14.07;;
48791;SDS011;34587;48.816;9.420;2023-11-19T17:16:47;25.05;;;10.10;;
48791;SDS011;34587;48.816;9.420;2023-11-19T17:19:12;8.70;;;4.30;;
48791;SDS011;34587;48.816;9.420;2023-11-19T17:21:37;5.15;;;2.83;;
48791;SDS011;34587;48.816;9.420;2023-11-19T17:24:03;2.80;;;1.85;;
48791;SDS011;34587;48.816;9.420;2023-11-19T17:26:28;5.22;;;2.25;;
48791;SDS011;34587;48.816;9.420;2023-11-19T17:28:53;5.93;;;1.45;;
48791;SDS011;34587;48.816;9.420;2023-11-19T17:31:19;1.35;;;1.00;;
48791;SDS011;34587;48.816;9.420;2023-11-19T17:33:45;1.33;;;0.95;;
48791;SDS011;34587;48.816;9.420;2023-11-19T17:36:10;1.10;;;0.95;;
48791;SDS011;34587;48.816;9.420;2023-11-19T17:38:35;11.77;;;1.45;;
48791;SDS011;34587;48.816;9.420;2023-11-19T17:41:00;1.85;;;1.50;;
48791;SDS011;34587;48.816;9.420;2023-11-19T17:43:27;4.93;;;1.35;;
48791;SDS011;34587;48.816;9.420;2023-11-19T17:45:52;2.20;;;1.23;;
48791;SDS011;34587;48.816;9.420;2023-11-19T17:48:21;1.02;;;0.95;;
48791;SDS011;34587;48.816;9.420;2023-11-19T17:50:47;1.95;;;1.33;;
48791;SDS011;34587;48.816;9.420;2023-11-19T17:53:12;2.63;;;0.93;;
48791;SDS011;34587;48.816;9.420;2023-11-19T17:55:38;4.65;;;2.22;;
48791;SDS011;34587;48.816;9.420;2023-11-19T17:58:04;2.58;;;1.25;;
48791;SDS011;34587;48.816;9.420;2023-11-19T18:00:30;3.40;;;1.70;;
48791;SDS011;34587;48.816;9.420;2023-11-19T18:02:55;3.85;;;1.40;;
48791;SDS011;34587;48.816;9.420;2023-11-19T18:05:21;5.95;;;1.50;;
48791;SDS011;34587;48.816;9.420;2023-11-19T18:07:46;3.70;;;1.20;;
48791;SDS011;34587;48.816;9.420;2023-11-19T18:10:11;1.98;;;0.90;;
48791;SDS011;34587;48.816;9.420;2023-11-19T18:12:37;2.40;;;1.05;;
48791;SDS011;34587;48.816;9.420;2023-11-19T18:15:04;4.90;;;1.70;;
48791;SDS011;34587;48.816;9.420;2023-11-19T18:17:30;3.15;;;1.20;;
48791;SDS011;34587;48.816;9.420;2023-11-19T18:19:56;0.75;;;0.75;;
48791;SDS011;34587;48.816;9.420;2023-11-19T18:22:22;2.67;;;1.45;;
48791;SDS011;34587;48.816;9.420;2023-11-19T18:24:47;4.78;;;0.88;;
48791;SDS011;34587;48.816;9.420;2023-11-19T18:27:13;3.08;;;1.02;;
48791;SDS011;34587;48.816;9.420;2023-11-19T18:29:38;3.15;;;1.08;;
48791;SDS011;34587;48.816;9.420;2023-11-19T18:32:05;1.67;;;0.80;;
48791;SDS011;34587;48.816;9.420;2023-11-19T18:34:34;3.17;;;1.48;;
48791;SDS011;34587;48.816;9.420;2023-11-19T18:36:59;2.30;;;1.25;;
48791;SDS011;34587;48.816;9.420;2023-11-19T18:39:25;0.80;;;0.80;;
48791;SDS011;34587;48.816;9.420;2023-11-19T18:41:50;3.03;;;1.20;;
48791;SDS011;34587;48.816;9.420;2023-11-19T18:44:15;1.17;;;1.08;;
48791;SDS011;34587;48.816;9.420;2023-11-19T18:46:41;1.25;;;0.90;;
48791;SDS011;34587;48.816;9.420;2023-11-19T18:49:06;1.60;;;0.90;;
48791;SDS011;34587;48.816;9.420;2023-11-19T18:51:34;0.95;;;0.95;;
48791;SDS011;34587;48.816;9.420;2023-11-19T18:54:00;1.45;;;0.98;;
48791;SDS011;34587;48.816;9.420;2023-11-19T18:56:25;1.17;;;0.80;;
48791;SDS011;34587;48.816;9.420;2023-11-19T18:58:51;0.95;;;0.90;;
48791;SDS011;34587;48.816;9.420;2023-11-19T19:01:16;5.47;;;1.50;;
48791;SDS011;34587;48.816;9.420;2023-11-19T19:03:42;2.28;;;2.03;;
48791;SDS011;34587;48.816;9.420;2023-11-19T19:06:08;2.40;;;1.83;;
48791;SDS011;34587;48.816;9.420;2023-11-19T19:08:34;8.85;;;3.10;;
48791;SDS011;34587;48.816;9.420;2023-11-19T19:11:00;4.40;;;1.85;;
48791;SDS011;34587;48.816;9.420;2023-11-19T19:13:26;3.50;;;1.85;;
48791;SDS011;34587;48.816;9.420;2023-11-19T19:15:52;2.90;;;1.60;;
48791;SDS011;34587;48.816;9.420;2023-11-19T19:18:17;2.53;;;1.90;;
48791;SDS011;34587;48.816;9.420;2023-11-19T19:20:42;3.72;;;1.92;;
48791;SDS011;34587;48.816;9.420;2023-11-19T19:23:09;3.28;;;1.60;;
48791;SDS011;34587;48.816;9.420;2023-11-19T19:25:34;1.83;;;0.93;;
48791;SDS011;34587;48.816;9.420;2023-11-19T19:28:00;3.53;;;1.40;;
48791;SDS011;34587;48.816;9.420;2023-11-19T19:30:25;1.60;;;1.27;;
48791;SDS011;34587;48.816;9.420;2023-11-19T19:32:51;4.35;;;1.60;;
48791;SDS011;34587;48.816;9.420;2023-11-19T19:35:17;3.20;;;1.02;;
48791;SDS011;34587;48.816;9.420;2023-11-19T19:37:43;6.93;;;1.85;;
48791;SDS011;34587;48.816;9.420;2023-11-19T19:40:10;4.82;;;1.35;;
48791;SDS011;34587;48.816;9.420;2023-11-19T19:42:37;4.10;;;1.30;;
48791;SDS011;34587;48.816;9.420;2023-11-19T19:45:06;3.92;;;1.45;;
48791;SDS011;34587;48.816;9.420;2023-11-19T19:47:32;2.47;;;1.65;;
48791;SDS011;34587;48.816;9.420;2023-11-19T19:49:57;6.72;;;2.40;;
48791;SDS011;34587;48.816;9.420;2023-11-19T19:52:23;8.00;;;1.77;;
48791;SDS011;34587;48.816;9.420;2023-11-19T19:54:48;4.68;;;1.27;;